Airfield :
LOGIN :

Register | Disclaimer

   EN    FR    IT 

 










Legend :    VFR   Marginal VFR   IFR   Intensive IFR   Very Intensive IFR
Visi :
Ceiling :
>= 8 km
>= 3000ft
5 to 8 km
1000 to 3000 ft
1500m to 5 km
500 to 1000 ft
800 to 1500m
200 to 500 ft
< 800m
< 200 ft
Symbols :   Thunderstorms  Fog  Heavy snow  Heavy precipitations  Wind > 20 kt
SIGMETs :     Misc.  Thunderstorms  Icing  Turbulence  Mountain Waves  Volcanic Ashes






- Airport Elevation : 870 ft
- IATA code : ETZ


LFJL - Metz Nancy Lorraine

CURRENT METAR :
  • 181900Z AUTO 23005KT CAVOK M00/M00 Q1029 NOSIG

EXPIRED METARs :
  • 181830Z AUTO 22006KT CAVOK 00/M00 Q1029 NOSIG
  • 181800Z AUTO 21007KT CAVOK 01/00 Q1028 NOSIG
  • 181730Z AUTO 22006KT 9999 FEW046 01/00 Q1028 TEMPO 4000 -DZ BR OVC006
  • 181700Z AUTO 25004KT 9999 BKN043 03/02 Q1028 TEMPO 4000 -DZ BR OVC006
  • 181630Z AUTO VRB03KT 9999 OVC037 03/02 Q1028 TEMPO 4000 -DZ BR OVC006

TAF TAF LFJL
Valid from the 18 at 18:00 until the 19 at 18:00 UTC


181700Z 1818/1918 35007KT 9000 SCT040
PROB40
TEMPO 1821/1909 4000 BR BKN008
PROB30
TEMPO 1822/1906 0500 FG VV///



MET'MAP, your aeronautical weather chart ! - Copyright ORBIFLY December 2007 - Disclaimer

ORBIFLY MET'MAP TEAM :

Programming & Development : Alexandra Zaïnal
Concept & original design : Baudouin d'Aumeries
Assistance for programming : Marc-Olivier Méhu
Technical & hardware support : Manuel Goepfert

Contact : metmap@orbifly.com




SOURCES & CREDITS :

   NOAA